Terminal Aerodrome Forecast
Issued by NWS Cleveland, OH

Home | Current Version | Previous Version | Graphics & Text | Print | Product List | Glossary Off
Versions: 1 2 3 4 5 6 7 8 9 10 11 12 13 14 15 16

000
FTUS41 KCLE 292300
TAFCAK
TAF
KCAK 292327Z 3000/3024 03007KT P6SM SKC
     FM301000 VRB03KT 6SM BR SCT100 BKN250
     FM301400 27005KT P6SM VCSH SCT015 BKN040 OVC100
     FM301600 29005KT P6SM VCSH BKN015 OVC040
     FM301800 32005KT 6SM -SHRA OVC012
     FM302200 36005KT P6SM OVC007=

USA.gov is the U.S. government's official web portal to all federal, state and local government web resources and services.